Time;durP1;ratioP1;P1;durP2;ratioP2;P2;SDS_P1;SDS_P2;PMS_P1;PMS_P2;Temp;Humidity;BMP_temperature;BMP_pressure;BME280_temperature;BME280_humidity;BME280_pressure;Samples;Min_cycle;Max_cycle;Signal;HPM_P1;HPM_P2
2021/04/16 00:00:22;;;;;;;;;27.75;27.75;;;;;9.84;80.20;101171.47;5077836;28;11562;-70
2021/04/16 00:03:19;;;;;;;;;26.25;26.00;;;;;9.78;80.32;101172.72;5095441;28;11528;-71
2021/04/16 00:06:14;;;;;;;;;32.75;32.75;;;;;9.80;79.98;101170.44;5094916;28;11483;-71
2021/04/16 00:08:42;;;;;;;;;20.50;20.50;;;;;9.67;80.32;101178.50;5077953;28;11460;-71
2021/04/16 00:11:28;;;;;;;;;26.00;26.00;;;;;9.68;80.06;101165.50;5095982;28;12207;-72
2021/04/16 00:14:24;;;;;;;;;28.50;28.50;;;;;9.64;80.27;101164.47;5094682;28;11450;-71
2021/04/16 00:17:20;;;;;;;;;27.50;25.75;;;;;9.81;79.38;101164.59;5094830;28;11442;-71
2021/04/16 00:20:20;;;;;;;;;30.25;29.00;;;;;9.88;79.54;101161.41;5094678;28;11457;-71
2021/04/16 00:23:16;;;;;;;;;25.50;25.50;;;;;9.83;79.94;101158.78;5094232;28;11569;-71
2021/04/16 00:26:13;;;;;;;;;24.00;24.00;;;;;9.85;79.61;101162.84;5074725;28;11447;-72
2021/04/16 00:29:08;;;;;;;;;26.00;26.00;;;;;9.77;79.90;101160.84;5074074;28;12246;-70
2021/04/16 00:32:04;;;;;;;;;23.50;23.50;;;;;9.76;80.15;101156.47;5073169;28;11465;-71
2021/04/16 00:34:32;;;;;;;;;24.00;24.00;;;;;9.83;80.00;101172.59;5086839;28;11555;-72
2021/04/16 00:37:29;;;;;;;;;25.25;25.25;;;;;9.88;78.96;101169.69;5080399;28;11581;-71
2021/04/16 00:40:00;;;;;;;;;31.75;31.75;;;;;9.95;79.39;101159.84;5078225;28;11469;-70
2021/04/16 00:42:27;;;;;;;;;24.25;24.25;;;;;9.96;79.30;101168.94;5095566;28;11484;-70
2021/04/16 00:45:25;;;;;;;;;27.00;24.25;;;;;9.95;79.29;101164.53;5080791;28;11491;-71
2021/04/16 00:48:29;;;;;;;;;23.50;23.50;;;;;9.84;79.34;101157.66;5094040;28;11447;-72
2021/04/16 00:51:43;;;;;;;;;21.50;21.50;;;;;9.88;79.50;101164.16;5080617;28;11456;-71
2021/04/16 00:54:42;;;;;;;;;27.75;27.75;;;;;9.99;79.19;101177.44;5080215;28;11581;-69
2021/04/16 00:57:38;;;;;;;;;26.50;25.00;;;;;9.88;78.96;101167.75;5080633;28;12349;-71
2021/04/16 01:00:26;;;;;;;;;20.75;20.75;;;;;9.89;79.17;101160.28;5093863;28;11533;-71
2021/04/16 01:03:23;;;;;;;;;23.25;23.25;;;;;9.94;78.72;101168.44;5092216;28;11471;-72
2021/04/16 01:06:21;;;;;;;;;18.75;18.75;;;;;9.96;78.93;101171.69;5081586;28;11452;-72
2021/04/16 01:08:51;;;;;;;;;20.50;20.00;;;;;9.86;79.54;101167.25;5094802;28;11442;-72
2021/04/16 01:11:47;;;;;;;;;20.75;20.75;;;;;9.81;79.14;101163.78;5093736;28;11473;-71
2021/04/16 01:14:45;;;;;;;;;26.50;26.50;;;;;9.77;79.14;101168.31;5093610;28;11570;-72
2021/04/16 01:17:45;;;;;;;;;20.25;20.25;;;;;9.78;79.48;101173.53;5093984;28;11563;-71
2021/04/16 01:20:43;;;;;;;;;19.50;19.50;;;;;9.74;79.49;101178.06;5080206;28;11637;-72
2021/04/16 01:24:11;;;;;;;;;19.50;19.50;;;;;9.84;79.86;101177.81;5080484;28;11400;-72
2021/04/16 01:27:13;;;;;;;;;24.25;24.25;;;;;9.76;80.10;101170.28;5066485;28;11408;-71
2021/04/16 01:30:20;;;;;;;;;26.00;24.75;;;;;9.90;79.68;101171.03;5093409;28;11536;-72
2021/04/16 01:33:15;;;;;;;;;23.25;23.25;;;;;9.91;80.16;101164.38;5093106;28;11509;-71
2021/04/16 01:36:13;;;;;;;;;29.00;29.00;;;;;9.92;79.92;101166.00;5079762;28;11471;-71
2021/04/16 01:39:09;;;;;;;;;27.50;24.75;;;;;9.78;80.90;101167.19;5072914;28;11429;-72
2021/04/16 01:42:05;;;;;;;;;24.50;24.25;;;;;9.81;80.41;101163.78;5072957;28;11460;-71
2021/04/16 01:45:01;;;;;;;;;22.25;21.00;;;;;9.97;79.81;101170.59;5059691;28;11644;-71
2021/04/16 01:48:00;;;;;;;;;23.50;23.50;;;;;9.93;79.77;101175.91;5070962;28;11459;-71
2021/04/16 01:50:55;;;;;;;;;22.25;22.25;;;;;9.91;80.04;101185.66;5092974;28;11512;-71
2021/04/16 01:54:08;;;;;;;;;23.75;23.75;;;;;9.86;80.26;101178.31;5092796;28;11439;-71
2021/04/16 01:57:05;;;;;;;;;23.00;23.00;;;;;9.98;80.23;101189.63;5073203;28;11474;-72
2021/04/16 02:00:11;;;;;;;;;21.50;21.50;;;;;10.11;79.89;101174.06;5083906;28;11444;-70
2021/04/16 02:03:07;;;;;;;;;24.75;24.75;;;;;10.02;80.66;101176.78;5107796;28;11478;-71
2021/04/16 02:06:05;;;;;;;;;21.75;21.75;;;;;10.08;80.45;101179.44;5092838;28;11455;-71
2021/04/16 02:09:04;;;;;;;;;22.50;21.50;;;;;10.22;79.88;101182.94;5090418;28;11448;-71
2021/04/16 02:12:00;;;;;;;;;25.50;22.50;;;;;9.95;80.79;101178.34;5092500;28;11455;-73
2021/04/16 02:14:56;;;;;;;;;20.25;20.25;;;;;10.06;80.44;101182.50;5079697;28;11551;-71
2021/04/16 02:17:51;;;;;;;;;19.00;19.00;;;;;9.96;80.76;101185.50;5092346;28;11555;-70
2021/04/16 02:20:47;;;;;;;;;17.75;17.75;;;;;9.99;80.80;101188.47;5092389;28;11432;-72
2021/04/16 02:23:42;;;;;;;;;17.75;17.75;;;;;9.95;80.42;101184.69;5091610;28;11517;-72
2021/04/16 02:26:39;;;;;;;;;18.75;18.75;;;;;10.03;80.47;101178.41;5092456;28;11221;-71
2021/04/16 02:29:35;;;;;;;;;19.00;19.00;;;;;10.17;80.11;101181.09;5078865;28;11461;-71
2021/04/16 02:32:30;;;;;;;;;6.00;6.00;;;;;10.14;79.83;101184.50;5092488;28;11130;-71
2021/04/16 02:34:58;;;;;;;;;22.00;21.75;;;;;10.05;79.99;101189.19;5093063;28;11427;-73
2021/04/16 02:37:54;;;;;;;;;20.00;20.00;;;;;10.17;79.77;101188.59;5091648;28;11457;-70
2021/04/16 02:40:50;;;;;;;;;18.25;17.75;;;;;10.20;79.34;101186.03;5089437;28;11528;-70
2021/04/16 02:43:46;;;;;;;;;18.75;18.75;;;;;10.24;79.74;101194.50;5070977;28;11464;-71
2021/04/16 02:46:15;;;;;;;;;17.75;17.75;;;;;10.28;79.21;101192.75;5055646;28;11538;-71
2021/04/16 02:49:12;;;;;;;;;16.50;16.50;;;;;10.24;79.18;101200.84;5058916;28;11313;-72
2021/04/16 02:52:07;;;;;;;;;24.75;24.00;;;;;10.08;79.30;101193.25;5084453;28;11432;-72
2021/04/16 02:55:04;;;;;;;;;18.75;18.75;;;;;10.17;79.43;101194.13;5083158;28;11459;-71
2021/04/16 02:58:00;;;;;;;;;20.50;19.25;;;;;9.99;80.15;101188.47;5092540;28;11443;-72
2021/04/16 03:00:56;;;;;;;;;21.50;21.50;;;;;10.09;80.22;101198.44;5091894;28;11413;-71
2021/04/16 03:03:52;;;;;;;;;23.00;21.00;;;;;10.28;80.55;101201.06;5091682;28;11892;-70
2021/04/16 03:06:48;;;;;;;;;24.00;24.00;;;;;10.23;79.41;101196.47;5079191;28;11484;-69
2021/04/16 03:09:43;;;;;;;;;21.75;19.75;;;;;10.16;79.35;101204.34;5078267;28;12339;-72
2021/04/16 03:12:39;;;;;;;;;13.75;13.00;;;;;10.19;79.85;101208.41;5059192;28;11455;-72
2021/04/16 03:15:35;;;;;;;;;25.75;25.00;;;;;10.21;80.22;101201.47;5072431;28;11458;-70
2021/04/16 03:18:31;;;;;;;;;17.75;17.75;;;;;10.18;79.79;101201.25;5071374;28;11383;-70
2021/04/16 03:21:27;;;;;;;;;19.50;19.50;;;;;10.15;80.11;101201.91;5058250;28;11449;-70
2021/04/16 03:24:23;;;;;;;;;17.25;14.75;;;;;10.18;79.30;101209.56;5078984;28;11549;-70
2021/04/16 03:27:18;;;;;;;;;17.75;17.75;;;;;10.28;79.41;101214.88;5091630;28;11404;-70
2021/04/16 03:30:19;;;;;;;;;15.25;15.25;;;;;10.21;79.09;101209.75;5091575;28;11406;-71
2021/04/16 03:33:14;;;;;;;;;19.50;19.50;;;;;10.17;79.32;101222.56;5091497;28;11485;-72
2021/04/16 03:36:10;;;;;;;;;21.50;19.75;;;;;10.05;78.96;101219.56;5079656;28;11456;-72
2021/04/16 03:39:06;;;;;;;;;20.50;20.50;;;;;10.12;79.62;101222.72;5082180;28;11450;-71
2021/04/16 03:42:02;;;;;;;;;26.75;26.75;;;;;10.09;79.50;101219.75;5077413;28;11454;-72
2021/04/16 03:44:58;;;;;;;;;24.50;23.25;;;;;10.20;79.71;101226.66;5091772;28;11475;-71
2021/04/16 03:47:54;;;;;;;;;23.00;23.00;;;;;10.09;79.00;101219.75;5094707;28;11447;-72
2021/04/16 03:50:50;;;;;;;;;23.50;22.75;;;;;10.18;78.53;101229.72;5094782;28;11463;-71
2021/04/16 03:53:45;;;;;;;;;25.25;25.25;;;;;10.14;78.73;101227.91;5081793;28;11478;-71
2021/04/16 03:56:17;;;;;;;;;30.50;30.50;;;;;10.11;78.96;101237.63;5078462;28;11572;-71
2021/04/16 03:59:12;;;;;;;;;38.50;35.25;;;;;10.27;78.68;101236.19;5081707;28;11450;-71
2021/04/16 04:02:08;;;;;;;;;30.00;28.50;;;;;10.18;78.58;101231.66;5088745;28;11491;-70
2021/04/16 04:05:04;;;;;;;;;20.50;20.50;;;;;10.28;77.98;101232.28;5080056;28;11496;-71
2021/04/16 04:08:00;;;;;;;;;15.25;15.25;;;;;10.21;77.66;101236.59;5081342;28;11456;-70
2021/04/16 04:10:55;;;;;;;;;19.00;19.00;;;;;10.11;77.58;101234.88;5081504;28;11579;-72
2021/04/16 04:13:55;;;;;;;;;18.50;18.50;;;;;10.18;77.65;101238.00;5094527;28;11469;-71
2021/04/16 04:16:56;;;;;;;;;20.25;19.25;;;;;10.23;77.27;101229.63;5075617;28;11476;-70
2021/04/16 04:19:52;;;;;;;;;20.00;20.00;;;;;10.23;77.20;101232.41;5090485;28;11453;-69
2021/04/16 04:22:48;;;;;;;;;22.50;22.50;;;;;10.06;77.86;101239.72;5081544;28;11443;-69
2021/04/16 04:25:44;;;;;;;;;20.75;20.00;;;;;10.20;76.85;101241.31;5081121;28;11472;-71
2021/04/16 04:28:11;;;;;;;;;23.00;22.75;;;;;10.16;76.53;101234.75;5077430;28;11477;-71
2021/04/16 04:31:07;;;;;;;;;19.25;19.25;;;;;10.21;76.65;101248.47;5094706;28;11409;-71
2021/04/16 04:34:03;;;;;;;;;25.25;24.25;;;;;10.21;76.22;101250.41;5094273;28;11439;-70
2021/04/16 04:37:01;;;;;;;;;23.75;23.25;;;;;10.12;76.01;101250.34;5093394;28;11468;-71
2021/04/16 04:39:56;;;;;;;;;24.00;23.50;;;;;10.18;75.46;101254.59;5094436;28;12302;-70
2021/04/16 04:46:59;;;;;;;;;23.25;22.75;;;;;10.03;75.91;101257.75;5071749;28;11424;-72
2021/04/16 04:49:54;;;;;;;;;25.00;25.00;;;;;9.99;75.47;101262.28;5060584;28;11605;-69
2021/04/16 04:52:51;;;;;;;;;28.00;28.00;;;;;10.07;75.40;101256.00;5074659;28;11452;-70
2021/04/16 04:55:28;;;;;;;;;23.25;23.25;;;;;9.98;75.83;101258.69;5075018;28;11542;-73
2021/04/16 04:58:08;;;;;;;;;22.50;22.50;;;;;10.03;75.72;101258.56;5073619;28;11488;-73
2021/04/16 05:01:03;;;;;;;;;25.00;24.75;;;;;9.98;76.48;101261.47;5078687;28;11408;-72
2021/04/16 05:03:59;;;;;;;;;23.00;23.00;;;;;10.02;75.47;101270.75;5094002;28;11442;-72
2021/04/16 05:06:55;;;;;;;;;33.00;30.75;;;;;10.05;75.74;101268.50;5081063;28;11469;-73
2021/04/16 05:09:50;;;;;;;;;24.00;23.50;;;;;9.99;75.67;101265.84;5080531;28;11454;-73
2021/04/16 05:12:47;;;;;;;;;27.50;26.25;;;;;10.11;75.76;101270.00;5078319;28;11487;-71
2021/04/16 05:15:44;;;;;;;;;28.00;27.50;;;;;10.11;75.49;101268.03;5092505;28;11460;-71
2021/04/16 05:18:39;;;;;;;;;29.50;28.75;;;;;10.06;76.22;101265.41;5091120;28;11465;-71
2021/04/16 05:21:37;;;;;;;;;22.25;22.25;;;;;10.23;75.52;101271.09;5092458;28;11396;-71
2021/04/16 05:24:10;;;;;;;;;25.25;25.25;;;;;10.11;75.67;101268.03;5094360;28;11453;-69
2021/04/16 05:27:09;;;;;;;;;26.50;25.00;;;;;10.14;75.63;101270.19;5092762;28;11612;-70
2021/04/16 05:30:06;;;;;;;;;24.75;24.75;;;;;10.16;75.71;101273.44;5093480;28;11558;-71
2021/04/16 05:32:34;;;;;;;;;20.75;20.00;;;;;10.17;75.88;101277.84;5094637;28;11526;-71
2021/04/16 05:35:15;;;;;;;;;25.00;25.00;;;;;10.37;75.08;101279.34;5078439;28;12157;-71
2021/04/16 05:38:11;;;;;;;;;28.25;28.25;;;;;10.24;75.26;101283.78;5079669;28;11476;-71
2021/04/16 05:41:06;;;;;;;;;26.75;26.50;;;;;10.31;75.51;101286.13;5093349;28;11481;-72
2021/04/16 05:44:02;;;;;;;;;29.50;29.50;;;;;10.33;75.39;101286.59;5093230;28;11455;-71
2021/04/16 05:46:58;;;;;;;;;26.75;25.25;;;;;10.30;74.98;101288.06;5093678;28;11483;-73
2021/04/16 05:49:25;;;;;;;;;25.25;25.25;;;;;10.43;74.75;101299.38;5092509;28;11483;-73
2021/04/16 05:52:21;;;;;;;;;26.75;26.75;;;;;10.41;74.54;101293.34;5093048;28;11457;-72
2021/04/16 05:54:58;;;;;;;;;20.75;20.75;;;;;10.34;74.76;101301.25;5077431;28;11558;-70
2021/04/16 05:57:53;;;;;;;;;22.25;22.25;;;;;10.39;74.57;101303.91;5079101;28;12205;-70
2021/04/16 06:00:26;;;;;;;;;21.00;21.00;;;;;10.29;74.37;101313.28;5093484;28;11571;-71
2021/04/16 06:03:22;;;;;;;;;18.00;18.00;;;;;10.25;74.45;101299.25;5091751;28;11705;-71
2021/04/16 06:06:18;;;;;;;;;17.50;17.50;;;;;10.33;74.26;101308.72;5092454;28;11241;-71
2021/04/16 06:09:13;;;;;;;;;18.25;18.25;;;;;10.29;74.66;101313.28;5092036;28;11269;-72
2021/04/16 06:11:55;;;;;;;;;18.25;18.25;;;;;10.38;74.42;101311.38;5091858;28;12310;-73
2021/04/16 06:14:50;;;;;;;;;22.75;22.75;;;;;10.46;74.15;101316.16;5092102;28;11530;-72
2021/04/16 06:17:46;;;;;;;;;21.00;21.00;;;;;10.63;74.09;101322.94;5089054;28;12278;-72
2021/04/16 06:20:38;;;;;;;;;21.50;21.50;;;;;10.65;73.68;101312.34;5075167;28;11481;-72
2021/04/16 06:23:06;;;;;;;;;24.25;22.75;;;;;10.66;73.74;101322.28;5093367;28;11451;-71
2021/04/16 06:25:34;;;;;;;;;22.25;22.25;;;;;10.81;73.34;101321.88;5093086;28;11077;-72
2021/04/16 06:28:30;;;;;;;;;25.25;24.50;;;;;10.73;73.70;101320.69;5078906;28;11335;-72
2021/04/16 06:31:27;;;;;;;;;19.25;19.25;;;;;10.81;72.94;101325.50;5079275;28;11180;-72
2021/04/16 06:34:23;;;;;;;;;16.00;15.00;;;;;10.84;72.91;101324.03;5090413;28;11189;-72
2021/04/16 06:36:54;;;;;;;;;15.25;15.25;;;;;10.78;72.96;101331.66;5075503;28;11143;-71
2021/04/16 06:39:50;;;;;;;;;22.75;21.75;;;;;10.80;72.55;101323.84;5091525;28;10917;-71
2021/04/16 06:42:30;;;;;;;;;17.50;17.50;;;;;10.84;72.21;101327.63;5091119;28;11083;-71
2021/04/16 06:45:30;;;;;;;;;15.00;15.00;;;;;10.97;71.85;101334.22;5086847;28;11169;-74
2021/04/16 06:48:26;;;;;;;;;17.50;17.50;;;;;10.99;71.50;101336.66;5077735;28;11107;-74
2021/04/16 06:51:10;;;;;;;;;15.75;15.75;;;;;11.14;69.81;101347.31;5072440;28;11215;-73
2021/04/16 06:54:05;;;;;;;;;7.25;7.25;;;;;10.95;69.48;101333.69;5087676;28;10976;-75
2021/04/16 06:56:51;;;;;;;;;14.00;14.00;;;;;11.09;68.90;101344.66;5090920;28;10823;-73
2021/04/16 06:59:25;;;;;;;;;13.00;13.00;;;;;11.16;68.24;101349.75;5082822;28;10976;-74
2021/04/16 07:02:13;;;;;;;;;11.25;11.25;;;;;11.04;68.83;101342.88;5074233;28;11039;-73
2021/04/16 07:05:27;;;;;;;;;14.25;14.25;;;;;11.19;68.59;101341.63;5085134;28;11820;-74
2021/04/16 07:07:58;;;;;;;;;14.00;14.00;;;;;11.36;67.33;101347.25;5072498;28;10953;-72
2021/04/16 07:10:33;;;;;;;;;12.50;12.50;;;;;11.43;67.49;101348.72;5090788;28;10923;-74
2021/04/16 07:13:39;;;;;;;;;14.75;14.75;;;;;11.36;67.90;101341.69;5090227;28;10535;-74
2021/04/16 07:16:35;;;;;;;;;12.25;12.25;;;;;11.44;68.18;101339.28;5089956;28;10876;-74
2021/04/16 07:19:33;;;;;;;;;15.00;15.00;;;;;11.67;67.27;101346.34;5090688;28;10651;-74
2021/04/16 07:22:43;;;;;;;;;14.75;14.75;;;;;11.86;67.17;101346.91;5075932;28;10965;-74
2021/04/16 07:25:37;;;;;;;;;14.50;14.50;;;;;11.92;67.34;101356.69;5073983;28;10863;-74
2021/04/16 07:28:44;;;;;;;;;18.00;18.00;;;;;12.16;66.54;101352.66;5082345;28;10874;-73
2021/04/16 07:31:48;;;;;;;;;16.00;16.00;;;;;12.30;66.76;101347.75;5087154;28;10690;-74
2021/04/16 07:34:48;;;;;;;;;16.25;16.25;;;;;12.51;65.66;101348.72;5069962;28;10609;-74
2021/04/16 07:37:47;;;;;;;;;15.00;15.00;;;;;12.66;64.00;101339.09;5088604;28;10415;-74
2021/04/16 07:40:45;;;;;;;;;17.00;17.00;;;;;12.74;63.99;101346.56;5091189;28;10585;-73
2021/04/16 07:43:41;;;;;;;;;14.00;14.00;;;;;12.53;63.84;101354.75;5090652;28;10402;-73
2021/04/16 07:46:41;;;;;;;;;14.00;14.00;;;;;12.63;63.93;101350.81;5090840;28;10317;-72
2021/04/16 07:49:39;;;;;;;;;13.25;13.25;;;;;12.61;63.99;101355.09;5076832;28;10571;-73
2021/04/16 07:52:45;;;;;;;;;18.25;18.25;;;;;12.01;64.76;101353.13;5090353;28;10562;-75
2021/04/16 07:55:40;;;;;;;;;18.25;18.25;;;;;12.59;63.07;101354.59;5090823;28;10608;-73
2021/04/16 07:58:24;;;;;;;;;18.00;17.00;;;;;12.92;62.34;101361.22;5090724;28;10447;-73
2021/04/16 08:01:30;;;;;;;;;15.75;15.75;;;;;13.04;61.10;101357.78;5091166;28;10506;-72
2021/04/16 08:04:35;;;;;;;;;20.25;20.25;;;;;12.92;62.30;101352.09;5091183;28;10457;-75
2021/04/16 08:07:33;;;;;;;;;18.75;18.50;;;;;13.21;61.30;101349.41;5077929;28;10379;-76
2021/04/16 08:10:16;;;;;;;;;16.00;16.00;;;;;13.41;59.56;101353.41;5091855;28;10465;-75
2021/04/16 08:13:16;;;;;;;;;16.25;16.25;;;;;13.38;60.16;101356.84;5077192;28;10079;-75
2021/04/16 08:16:15;;;;;;;;;20.00;19.50;;;;;13.31;59.36;101353.78;5081173;28;10313;-75
2021/04/16 08:19:25;;;;;;;;;19.25;19.25;;;;;12.75;60.28;101355.72;5077273;28;10226;-75
2021/04/16 08:22:10;;;;;;;;;15.25;15.25;;;;;13.01;59.82;101352.88;5092811;28;10389;-74
2021/04/16 08:25:11;;;;;;;;;11.50;11.50;;;;;12.85;59.40;101363.69;5080947;28;10317;-77
2021/04/16 08:27:54;;;;;;;;;15.50;14.50;;;;;13.03;59.17;101347.78;5074481;28;10228;-78
2021/04/16 08:30:29;;;;;;;;;9.50;9.50;;;;;12.93;58.86;101346.19;5094944;28;10529;-76
2021/04/16 08:33:31;;;;;;;;;10.50;10.50;;;;;13.42;57.30;101351.44;5092820;28;10268;-75
2021/04/16 08:36:18;;;;;;;;;11.25;11.25;;;;;13.35;57.74;101351.97;5075307;28;10163;-75
2021/04/16 08:39:27;;;;;;;;;5.25;5.25;;;;;13.46;56.98;101349.63;5084639;28;10795;-74
2021/04/16 08:42:29;;;;;;;;;10.50;10.50;;;;;13.52;58.04;101349.09;5094170;28;9999;-73
2021/04/16 08:45:27;;;;;;;;;6.25;6.25;;;;;13.57;57.50;101348.94;5094190;28;10015;-75
2021/04/16 08:48:38;;;;;;;;;6.75;6.75;;;;;13.92;56.93;101351.47;5093236;28;9820;-76
2021/04/16 08:51:36;;;;;;;;;9.25;9.25;;;;;14.02;56.08;101356.63;5060570;28;9759;-75
2021/04/16 08:54:36;;;;;;;;;20.25;20.25;;;;;13.96;56.52;101340.50;5068654;28;9833;-75
2021/04/16 08:57:14;;;;;;;;;8.00;8.00;;;;;13.80;56.29;101351.38;5094275;28;10180;-74
2021/04/16 09:00:00;;;;;;;;;12.00;12.00;;;;;13.98;55.71;101350.13;5095112;28;10469;-75
2021/04/16 09:02:58;;;;;;;;;10.00;10.00;;;;;13.89;55.42;101343.81;5094174;28;9718;-74
2021/04/16 09:05:59;;;;;;;;;6.00;6.00;;;;;13.60;55.50;101351.03;5093946;28;9772;-76
2021/04/16 09:08:56;;;;;;;;;9.00;9.00;;;;;14.13;54.75;101346.75;5093932;28;9740;-74
2021/04/16 09:11:53;;;;;;;;;9.00;9.00;;;;;14.33;54.02;101355.41;5074775;28;9623;-74
2021/04/16 09:14:52;;;;;;;;;8.50;8.50;;;;;14.51;54.11;101350.56;5087953;28;9761;-74
2021/04/16 09:17:50;;;;;;;;;10.75;10.75;;;;;14.62;54.59;101355.34;5093273;28;9811;-75
2021/04/16 09:20:46;;;;;;;;;7.00;7.00;;;;;14.68;54.30;101355.97;5092819;28;9457;-74
2021/04/16 09:23:33;;;;;;;;;9.67;9.67;;;;;14.76;53.68;101352.28;5094737;28;9557;-74
2021/04/16 09:26:43;;;;;;;;;8.67;8.67;;;;;14.67;53.71;101349.59;5093935;28;9273;-76
2021/04/16 09:29:27;;;;;;;;;7.25;7.25;;;;;14.69;53.34;101360.38;5094866;28;9376;-75
2021/04/16 09:32:29;;;;;;;;;6.00;6.00;;;;;14.49;52.73;101356.44;5072754;28;9548;-75
2021/04/16 09:35:27;;;;;;;;;7.75;7.75;;;;;14.21;53.73;101358.97;5092639;28;9516;-75
2021/04/16 09:38:38;;;;;;;;;7.50;7.50;;;;;14.58;53.13;101368.34;5093696;28;9617;-75
2021/04/16 09:41:35;;;;;;;;;6.50;6.50;;;;;14.83;52.63;101362.88;5072374;28;9621;-74
2021/04/16 09:44:31;;;;;;;;;6.00;6.00;;;;;15.05;51.41;101356.88;5088419;28;9507;-75
2021/04/16 09:47:48;;;;;;;;;6.67;6.67;;;;;14.93;52.18;101356.84;5079752;28;9304;-75
2021/04/16 09:51:09;;;;;;;;;8.00;8.00;;;;;14.93;52.29;101354.88;5079179;28;9492;-73
2021/04/16 09:54:08;;;;;;;;;8.33;8.33;;;;;14.49;53.10;101364.00;5092295;28;9358;-74
2021/04/16 09:57:01;;;;;;;;;8.00;8.00;;;;;14.74;54.13;101349.03;5094123;28;9527;-76
2021/04/16 10:00:29;;;;;;;;;10.00;10.00;;;;;15.15;53.36;101353.66;5091365;28;9487;-75
2021/04/16 10:03:23;;;;;;;;;7.67;7.67;;;;;15.27;52.75;101348.09;5056246;28;9398;-74
2021/04/16 10:06:38;;;;;;;;;11.00;11.00;;;;;15.26;52.63;101359.59;5072379;28;9198;-75
2021/04/16 10:09:35;;;;;;;;;11.00;11.00;;;;;15.43;52.77;101359.38;5085270;28;9292;-75
2021/04/16 10:12:44;;;;;;;;;10.00;10.00;;;;;15.49;52.67;101357.19;5061853;28;9388;-75
2021/04/16 12:39:00;;;;;;;;;3.00;3.00;;;;;14.43;52.07;101369.75;4886977;29;9112;-76
2021/04/16 12:41:58;;;;;;;;;3.00;3.00;;;;;14.06;51.06;101365.94;4884430;29;9116;-78
2021/04/16 12:44:48;;;;;;;;;3.00;3.00;;;;;14.53;50.68;101371.31;4886510;29;9314;-75
2021/04/16 12:47:44;;;;;;;;;4.00;4.00;;;;;14.53;50.61;101373.31;4901038;29;9319;-76
2021/04/16 12:50:40;;;;;;;;;3.67;3.67;;;;;14.43;50.84;101382.84;4887082;29;9431;-76
2021/04/16 12:53:38;;;;;;;;;2.00;2.00;;;;;14.25;50.07;101386.91;4887924;29;9452;-76
2021/04/16 12:56:41;;;;;;;;;2.33;2.33;;;;;14.08;52.12;101413.69;4892810;29;9214;-76
2021/04/16 12:59:37;;;;;;;;;4.25;4.25;;;;;13.78;57.21;101421.22;4879767;29;10113;-76
2021/04/16 13:02:33;;;;;;;;;4.50;4.50;;;;;14.03;59.97;101425.03;4885323;29;9530;-75
2021/04/16 13:05:30;;;;;;;;;4.50;4.50;;;;;13.42;60.71;101426.44;4881218;29;9742;-77
2021/04/16 13:08:26;;;;;;;;;4.00;4.00;;;;;13.27;63.11;101425.88;4880783;29;10510;-77
2021/04/16 13:11:22;;;;;;;;;8.75;8.75;;;;;12.82;65.82;101427.38;4881442;29;9876;-76
2021/04/16 13:14:19;;;;;;;;;4.75;4.75;;;;;12.79;64.91;101437.97;4881354;29;9757;-77
2021/04/16 13:17:20;;;;;;;;;7.50;7.50;;;;;12.90;65.28;101427.38;4880720;29;9912;-77
2021/04/16 13:20:19;;;;;;;;;5.50;5.50;;;;;12.26;66.17;101427.19;4880931;29;10241;-78
2021/04/16 13:23:15;;;;;;;;;4.00;4.00;;;;;12.42;67.80;101436.69;4882495;29;9982;-78
2021/04/16 13:26:14;;;;;;;;;5.00;5.00;;;;;12.40;68.70;101444.50;4883190;29;10090;-79
2021/04/16 13:29:16;;;;;;;;;6.25;6.25;;;;;12.15;69.08;101432.25;4905922;29;10364;-78
2021/04/16 13:32:18;;;;;;;;;7.00;7.00;;;;;11.91;69.90;101426.31;4882315;29;10091;-77
2021/04/16 13:35:30;;;;;;;;;8.00;8.00;;;;;11.92;70.49;101408.56;4863690;29;10312;-75
2021/04/16 13:38:30;;;;;;;;;7.25;7.25;;;;;12.43;70.53;101407.81;4877476;29;10400;-76
2021/04/16 13:41:27;;;;;;;;;8.00;8.00;;;;;13.32;70.76;101388.75;4887395;29;10305;-76
2021/04/16 13:44:22;;;;;;;;;8.50;8.50;;;;;14.16;68.21;101392.53;4880913;29;10337;-77
2021/04/16 13:47:25;;;;;;;;;7.00;7.00;;;;;14.90;66.43;101390.97;4891067;29;9911;-78
2021/04/16 13:50:21;;;;;;;;;6.00;6.00;;;;;15.26;63.34;101382.72;4882722;29;9639;-77
2021/04/16 13:53:17;;;;;;;;;4.33;4.33;;;;;15.77;57.37;101377.63;4878156;29;9544;-75
2021/04/16 13:56:17;;;;;;;;;5.50;5.50;;;;;15.99;58.59;101381.09;4883803;29;9138;-74
2021/04/16 13:59:13;;;;;;;;;5.75;5.75;;;;;15.17;58.13;101370.81;4860058;29;8921;-73
2021/04/16 14:02:14;;;;;;;;;4.00;4.00;;;;;15.14;58.42;101368.75;4869029;29;8876;-76
2021/04/16 14:05:14;;;;;;;;;7.33;7.33;;;;;15.05;60.21;101370.81;4861593;29;9692;-75
2021/04/16 14:08:38;;;;;;;;;4.00;4.00;;;;;14.73;59.66;101359.34;4863100;29;9058;-77
2021/04/16 14:11:34;;;;;;;;;17.00;17.00;;;;;14.46;58.61;101365.50;4899319;29;9222;-78
2021/04/16 14:14:30;;;;;;;;;6.67;6.67;;;;;14.33;59.71;101358.19;4885298;29;9355;-77
2021/04/16 14:17:36;;;;;;;;;11.00;10.00;;;;;14.25;60.51;101361.88;4880790;29;9207;-77
2021/04/16 14:20:40;;;;;;;;;7.00;7.00;;;;;14.33;60.91;101356.22;4879718;29;9454;-74
2021/04/16 14:23:36;;;;;;;;;14.00;14.00;;;;;14.12;61.25;101353.47;4879985;29;9458;-76
2021/04/16 14:26:32;;;;;;;;;17.50;17.50;;;;;14.25;62.03;101359.09;4879539;29;9686;-76
2021/04/16 14:29:29;;;;;;;;;14.50;14.50;;;;;13.70;63.09;101372.06;4878566;29;9832;-75
2021/04/16 14:32:25;;;;;;;;;17.00;17.00;;;;;13.81;63.54;101372.50;4879782;29;9655;-75
2021/04/16 14:35:23;;;;;;;;;14.75;14.75;;;;;13.80;63.24;101398.66;4879246;29;10814;-76
2021/04/16 14:38:19;;;;;;;;;14.50;14.25;;;;;13.61;64.40;101412.97;4879312;29;10095;-76
2021/04/16 14:41:22;;;;;;;;;10.50;10.50;;;;;13.53;62.12;101424.94;4885457;29;9750;-75
2021/04/16 14:44:20;;;;;;;;;11.50;11.50;;;;;13.40;63.10;101429.56;4898024;29;9810;-77
2021/04/16 14:47:15;;;;;;;;;10.00;9.00;;;;;13.18;65.17;101438.09;4897577;29;10078;-78
2021/04/16 14:50:13;;;;;;;;;13.25;13.25;;;;;13.04;66.41;101433.56;4891305;29;9975;-77
2021/04/16 14:53:50;;;;;;;;;11.00;11.00;;;;;12.96;68.25;101444.69;4878890;29;10145;-78
2021/04/16 14:56:46;;;;;;;;;8.75;8.25;;;;;12.49;69.19;101436.19;4865136;29;10267;-75
2021/04/16 14:59:44;;;;;;;;;7.25;7.25;;;;;12.09;70.98;101405.00;4878097;29;10069;-75
2021/04/16 15:02:41;;;;;;;;;8.75;8.75;;;;;12.19;71.92;101397.19;4879022;29;10497;-76
2021/04/16 15:05:40;;;;;;;;;9.50;9.50;;;;;12.19;69.86;101422.16;4871814;29;10466;-77
2021/04/16 15:08:42;;;;;;;;;10.50;9.25;;;;;12.29;73.29;101421.03;4860008;29;10380;-76
2021/04/16 15:11:54;;;;;;;;;9.50;9.50;;;;;11.92;70.35;101439.03;4862746;29;10428;-77
2021/04/16 15:14:57;;;;;;;;;7.00;7.00;;;;;11.95;70.10;101425.34;4860820;29;10385;-76
2021/04/16 15:17:54;;;;;;;;;8.25;8.25;;;;;11.90;67.89;101455.19;4886025;29;10360;-76
2021/04/16 15:20:50;;;;;;;;;8.00;8.00;;;;;11.80;69.03;101447.97;4879122;29;10524;-77
2021/04/16 15:23:49;;;;;;;;;7.50;7.50;;;;;11.61;70.36;101439.06;4877730;29;10724;-76
2021/04/16 15:26:44;;;;;;;;;11.75;11.75;;;;;11.37;70.85;101426.41;4879033;29;10562;-75
2021/04/16 15:29:43;;;;;;;;;9.25;9.25;;;;;11.37;72.65;101415.34;4878850;29;10740;-76
2021/04/16 15:32:41;;;;;;;;;9.75;9.75;;;;;11.49;72.75;101417.50;4880166;29;10554;-75
2021/04/16 15:46:05;;;;;;;;;13.75;13.75;;;;;11.43;73.93;101401.38;4884219;29;11580;-76
2021/04/16 15:49:08;;;;;;;;;8.75;8.75;;;;;11.30;74.38;101401.13;4874989;29;10744;-77
2021/04/16 15:52:04;;;;;;;;;8.50;8.50;;;;;11.34;73.90;101410.41;4863077;29;10708;-77
2021/04/16 15:55:00;;;;;;;;;11.00;11.00;;;;;11.13;75.08;101409.34;4877805;29;10783;-78
2021/04/16 15:57:56;;;;;;;;;12.50;10.75;;;;;11.16;74.25;101417.00;4883647;29;11549;-75
2021/04/16 16:00:57;;;;;;;;;8.25;8.25;;;;;10.99;74.29;101425.22;4883102;29;10788;-78
2021/04/16 16:03:53;;;;;;;;;10.75;10.75;;;;;10.99;74.91;101436.28;4868754;29;11408;-76